sensor_id;sensor_type;location;lat;lon;timestamp;pressure;altitude;pressure_sealevel;temperature;humidity
40838;BME280;29632;49.168;9.848;2023-02-18T00:01:16;97568.44;;;14.91;48.35
40838;BME280;29632;49.168;9.848;2023-02-18T00:03:43;97570.41;;;14.89;48.50
40838;BME280;29632;49.168;9.848;2023-02-18T00:06:14;97564.31;;;14.88;48.42
40838;BME280;29632;49.168;9.848;2023-02-18T00:08:41;97557.81;;;14.93;48.36
40838;BME280;29632;49.168;9.848;2023-02-18T00:11:07;97554.19;;;14.94;48.31
40838;BME280;29632;49.168;9.848;2023-02-18T00:13:33;97560.09;;;14.96;48.48
40838;BME280;29632;49.168;9.848;2023-02-18T00:16:06;97556.66;;;14.95;48.50
40838;BME280;29632;49.168;9.848;2023-02-18T00:18:33;97558.47;;;14.95;48.62
40838;BME280;29632;49.168;9.848;2023-02-18T00:20:58;97562.91;;;14.94;48.01
40838;BME280;29632;49.168;9.848;2023-02-18T00:23:25;97554.03;;;14.95;48.43
40838;BME280;29632;49.168;9.848;2023-02-18T00:26:02;97558.47;;;14.95;48.23
40838;BME280;29632;49.168;9.848;2023-02-18T00:28:27;97563.72;;;14.95;48.46
40838;BME280;29632;49.168;9.848;2023-02-18T00:30:53;97547.84;;;14.96;48.21
40838;BME280;29632;49.168;9.848;2023-02-18T00:33:19;97562.59;;;14.97;48.38
40838;BME280;29632;49.168;9.848;2023-02-18T00:35:45;97560.66;;;14.99;48.19
40838;BME280;29632;49.168;9.848;2023-02-18T00:38:10;97575.41;;;15.00;48.36
40838;BME280;29632;49.168;9.848;2023-02-18T00:40:37;97551.94;;;14.99;48.39
40838;BME280;29632;49.168;9.848;2023-02-18T00:43:03;97560.81;;;14.98;48.19
40838;BME280;29632;49.168;9.848;2023-02-18T00:45:29;97553.59;;;15.00;48.22
40838;BME280;29632;49.168;9.848;2023-02-18T00:47:54;97546.53;;;15.00;48.25
40838;BME280;29632;49.168;9.848;2023-02-18T00:50:20;97548.06;;;15.03;48.31
40838;BME280;29632;49.168;9.848;2023-02-18T00:52:46;97566.41;;;15.03;48.38
40838;BME280;29632;49.168;9.848;2023-02-18T00:55:12;97549.97;;;15.01;48.35
40838;BME280;29632;49.168;9.848;2023-02-18T00:57:37;97553.59;;;15.00;48.19
40838;BME280;29632;49.168;9.848;2023-02-18T01:00:07;97545.06;;;14.98;48.58
40838;BME280;29632;49.168;9.848;2023-02-18T01:02:33;97547.38;;;15.01;48.39
40838;BME280;29632;49.168;9.848;2023-02-18T01:04:59;97558.69;;;15.01;48.47
40838;BME280;29632;49.168;9.848;2023-02-18T01:07:25;97538.00;;;14.98;48.32
40838;BME280;29632;49.168;9.848;2023-02-18T01:09:51;97553.69;;;14.90;48.39
40838;BME280;29632;49.168;9.848;2023-02-18T01:12:16;97546.97;;;14.87;48.64
40838;BME280;29632;49.168;9.848;2023-02-18T01:14:42;97556.78;;;14.85;48.51
40838;BME280;29632;49.168;9.848;2023-02-18T01:17:08;97562.84;;;14.86;48.67
40838;BME280;29632;49.168;9.848;2023-02-18T01:19:33;97547.09;;;14.86;48.46
40838;BME280;29632;49.168;9.848;2023-02-18T01:21:59;97559.56;;;14.84;48.60
40838;BME280;29632;49.168;9.848;2023-02-18T01:24:25;97556.41;;;14.80;48.82
40838;BME280;29632;49.168;9.848;2023-02-18T01:26:50;97560.81;;;14.80;48.59
40838;BME280;29632;49.168;9.848;2023-02-18T01:29:16;97551.31;;;14.79;48.64
40838;BME280;29632;49.168;9.848;2023-02-18T01:31:42;97566.19;;;14.78;48.67
40838;BME280;29632;49.168;9.848;2023-02-18T01:34:07;97541.94;;;14.76;49.02
40838;BME280;29632;49.168;9.848;2023-02-18T01:36:33;97550.47;;;14.78;48.58
40838;BME280;29632;49.168;9.848;2023-02-18T01:38:59;97555.56;;;14.80;48.82
40838;BME280;29632;49.168;9.848;2023-02-18T01:41:25;97554.09;;;14.77;48.77
40838;BME280;29632;49.168;9.848;2023-02-18T01:44:14;97547.19;;;14.76;48.58
40838;BME280;29632;49.168;9.848;2023-02-18T01:46:40;97552.44;;;14.76;48.83
40838;BME280;29632;49.168;9.848;2023-02-18T01:49:06;97538.66;;;14.74;48.87
40838;BME280;29632;49.168;9.848;2023-02-18T01:51:35;97542.09;;;14.75;48.42
40838;BME280;29632;49.168;9.848;2023-02-18T01:54:03;97544.88;;;14.73;48.48
40838;BME280;29632;49.168;9.848;2023-02-18T01:56:36;97529.97;;;14.73;48.80
40838;BME280;29632;49.168;9.848;2023-02-18T01:59:06;97524.56;;;14.75;48.66
40838;BME280;29632;49.168;9.848;2023-02-18T02:01:34;97529.97;;;14.73;48.57
40838;BME280;29632;49.168;9.848;2023-02-18T02:04:00;97526.81;;;14.70;48.62
40838;BME280;29632;49.168;9.848;2023-02-18T02:06:26;97536.47;;;14.69;48.94
40838;BME280;29632;49.168;9.848;2023-02-18T02:08:54;97527.78;;;14.69;48.98
40838;BME280;29632;49.168;9.848;2023-02-18T02:14:34;97524.50;;;14.67;48.70
40838;BME280;29632;49.168;9.848;2023-02-18T02:20:11;97518.59;;;14.65;48.86
40838;BME280;29632;49.168;9.848;2023-02-18T02:36:18;97493.03;;;14.67;49.21
40838;BME280;29632;49.168;9.848;2023-02-18T02:38:54;97480.59;;;14.69;49.12
40838;BME280;29632;49.168;9.848;2023-02-18T02:41:35;97481.25;;;14.71;49.00
40838;BME280;29632;49.168;9.848;2023-02-18T02:44:20;97473.41;;;14.71;49.03
40838;BME280;29632;49.168;9.848;2023-02-18T02:46:51;97478.63;;;14.71;48.77
40838;BME280;29632;49.168;9.848;2023-02-18T02:49:35;97487.19;;;14.73;48.87
40838;BME280;29632;49.168;9.848;2023-02-18T02:54:33;97495.59;;;14.77;48.94
40838;BME280;29632;49.168;9.848;2023-02-18T02:59:50;97481.03;;;14.82;48.94
40838;BME280;29632;49.168;9.848;2023-02-18T03:08:28;97469.53;;;14.83;48.88
40838;BME280;29632;49.168;9.848;2023-02-18T03:13:56;97459.25;;;14.82;48.69
40838;BME280;29632;49.168;9.848;2023-02-18T03:19:31;97473.16;;;14.82;48.72
40838;BME280;29632;49.168;9.848;2023-02-18T03:22:02;97461.00;;;14.81;48.79
40838;BME280;29632;49.168;9.848;2023-02-18T03:24:29;97467.25;;;14.80;49.19
40838;BME280;29632;49.168;9.848;2023-02-18T03:27:23;97464.78;;;14.79;48.98
40838;BME280;29632;49.168;9.848;2023-02-18T03:29:53;97471.81;;;14.78;49.02
40838;BME280;29632;49.168;9.848;2023-02-18T03:32:20;97471.66;;;14.80;48.82
40838;BME280;29632;49.168;9.848;2023-02-18T03:34:49;97481.47;;;14.78;48.95
40838;BME280;29632;49.168;9.848;2023-02-18T03:37:16;97486.22;;;14.74;49.20
40838;BME280;29632;49.168;9.848;2023-02-18T03:39:45;97499.47;;;14.72;48.94
40838;BME280;29632;49.168;9.848;2023-02-18T03:42:11;97486.50;;;14.71;49.16
40838;BME280;29632;49.168;9.848;2023-02-18T03:44:37;97497.31;;;14.68;49.10
40838;BME280;29632;49.168;9.848;2023-02-18T03:47:02;97483.69;;;14.64;49.17
40838;BME280;29632;49.168;9.848;2023-02-18T03:49:28;97479.41;;;14.63;48.98
40838;BME280;29632;49.168;9.848;2023-02-18T03:51:54;97478.59;;;14.63;48.93
40838;BME280;29632;49.168;9.848;2023-02-18T03:54:20;97471.84;;;14.60;49.14
40838;BME280;29632;49.168;9.848;2023-02-18T03:56:45;97483.44;;;14.58;49.38
40838;BME280;29632;49.168;9.848;2023-02-18T03:59:11;97491.47;;;14.56;49.28
40838;BME280;29632;49.168;9.848;2023-02-18T04:01:37;97471.19;;;14.58;48.74
40838;BME280;29632;49.168;9.848;2023-02-18T04:04:03;97467.28;;;14.62;49.13
40838;BME280;29632;49.168;9.848;2023-02-18T04:06:29;97467.13;;;14.64;48.86
40838;BME280;29632;49.168;9.848;2023-02-18T04:08:55;97461.06;;;14.63;49.36
40838;BME280;29632;49.168;9.848;2023-02-18T04:11:20;97468.41;;;14.60;49.01
40838;BME280;29632;49.168;9.848;2023-02-18T04:13:46;97466.88;;;14.57;49.03
40838;BME280;29632;49.168;9.848;2023-02-18T04:16:12;97468.31;;;14.51;49.25
40838;BME280;29632;49.168;9.848;2023-02-18T04:18:38;97462.56;;;14.48;49.40
40838;BME280;29632;49.168;9.848;2023-02-18T04:21:04;97453.88;;;14.47;49.45
40838;BME280;29632;49.168;9.848;2023-02-18T04:23:30;97461.75;;;14.47;49.19
40838;BME280;29632;49.168;9.848;2023-02-18T04:25:55;97461.75;;;14.47;49.18
40838;BME280;29632;49.168;9.848;2023-02-18T04:28:21;97465.31;;;14.46;49.24
40838;BME280;29632;49.168;9.848;2023-02-18T04:30:47;97454.97;;;14.45;49.62
40838;BME280;29632;49.168;9.848;2023-02-18T04:33:13;97462.03;;;14.44;49.20
40838;BME280;29632;49.168;9.848;2023-02-18T04:35:38;97454.16;;;14.44;49.04
40838;BME280;29632;49.168;9.848;2023-02-18T04:38:08;97450.72;;;14.44;49.50
40838;BME280;29632;49.168;9.848;2023-02-18T04:40:34;97456.50;;;14.47;49.29
40838;BME280;29632;49.168;9.848;2023-02-18T04:43:00;97470.25;;;14.49;49.26
40838;BME280;29632;49.168;9.848;2023-02-18T04:45:26;97450.44;;;14.47;49.43
40838;BME280;29632;49.168;9.848;2023-02-18T04:47:52;97460.22;;;14.45;49.10
40838;BME280;29632;49.168;9.848;2023-02-18T04:50:19;97474.31;;;14.44;49.36
40838;BME280;29632;49.168;9.848;2023-02-18T04:52:44;97470.34;;;14.40;49.60
40838;BME280;29632;49.168;9.848;2023-02-18T04:55:10;97478.53;;;14.37;49.22
40838;BME280;29632;49.168;9.848;2023-02-18T04:57:36;97478.81;;;14.33;49.24
40838;BME280;29632;49.168;9.848;2023-02-18T05:00:03;97487.50;;;14.34;49.07
40838;BME280;29632;49.168;9.848;2023-02-18T05:02:31;97477.00;;;14.34;49.32
40838;BME280;29632;49.168;9.848;2023-02-18T05:04:57;97481.59;;;14.32;49.27
40838;BME280;29632;49.168;9.848;2023-02-18T05:07:23;97493.19;;;14.29;49.34
40838;BME280;29632;49.168;9.848;2023-02-18T05:09:49;97481.22;;;14.27;49.43
40838;BME280;29632;49.168;9.848;2023-02-18T05:12:14;97492.50;;;14.27;49.42
40838;BME280;29632;49.168;9.848;2023-02-18T05:14:40;97491.53;;;14.28;49.48
40838;BME280;29632;49.168;9.848;2023-02-18T05:17:06;97496.78;;;14.28;49.78
40838;BME280;29632;49.168;9.848;2023-02-18T05:19:31;97492.22;;;14.30;49.39
40838;BME280;29632;49.168;9.848;2023-02-18T05:21:57;97486.81;;;14.32;49.38
40838;BME280;29632;49.168;9.848;2023-02-18T05:24:23;97482.91;;;14.36;49.57
40838;BME280;29632;49.168;9.848;2023-02-18T05:26:48;97466.75;;;14.41;49.53
40838;BME280;29632;49.168;9.848;2023-02-18T05:29:14;97479.19;;;14.39;49.34
40838;BME280;29632;49.168;9.848;2023-02-18T05:31:39;97469.53;;;14.39;49.31
40838;BME280;29632;49.168;9.848;2023-02-18T05:34:05;97472.50;;;14.44;49.59
40838;BME280;29632;49.168;9.848;2023-02-18T05:36:31;97467.28;;;14.44;49.33
40838;BME280;29632;49.168;9.848;2023-02-18T05:38:56;97467.28;;;14.44;49.44
40838;BME280;29632;49.168;9.848;2023-02-18T05:41:22;97473.81;;;14.40;49.21
40838;BME280;29632;49.168;9.848;2023-02-18T05:43:48;97468.19;;;14.35;49.40
40838;BME280;29632;49.168;9.848;2023-02-18T05:46:32;97462.44;;;14.31;49.59
40838;BME280;29632;49.168;9.848;2023-02-18T05:48:58;97464.06;;;14.32;49.70
40838;BME280;29632;49.168;9.848;2023-02-18T05:51:23;97461.59;;;14.31;49.81
40838;BME280;29632;49.168;9.848;2023-02-18T05:53:49;97469.28;;;14.32;49.64
40838;BME280;29632;49.168;9.848;2023-02-18T05:56:14;97475.06;;;14.36;49.80
40838;BME280;29632;49.168;9.848;2023-02-18T05:58:40;97467.91;;;14.38;49.68
40838;BME280;29632;49.168;9.848;2023-02-18T06:01:06;97477.75;;;14.44;49.77
40838;BME280;29632;49.168;9.848;2023-02-18T06:03:31;97471.41;;;14.47;49.69
40838;BME280;29632;49.168;9.848;2023-02-18T06:05:57;97479.59;;;14.52;49.18
40838;BME280;29632;49.168;9.848;2023-02-18T06:08:23;97467.88;;;14.56;49.39
40838;BME280;29632;49.168;9.848;2023-02-18T06:10:48;97471.31;;;14.57;49.45
40838;BME280;29632;49.168;9.848;2023-02-18T06:13:14;97481.53;;;14.60;49.49
40838;BME280;29632;49.168;9.848;2023-02-18T06:15:39;97475.97;;;14.63;49.54
40838;BME280;29632;49.168;9.848;2023-02-18T06:18:05;97469.44;;;14.67;49.56
40838;BME280;29632;49.168;9.848;2023-02-18T06:20:31;97470.63;;;14.72;49.36
40838;BME280;29632;49.168;9.848;2023-02-18T06:22:57;97468.38;;;14.78;49.19
40838;BME280;29632;49.168;9.848;2023-02-18T06:25:23;97479.66;;;14.78;48.96
40838;BME280;29632;49.168;9.848;2023-02-18T06:27:49;97477.03;;;14.78;49.22
40838;BME280;29632;49.168;9.848;2023-02-18T06:30:14;97475.13;;;14.80;49.34
40838;BME280;29632;49.168;9.848;2023-02-18T06:32:40;97486.28;;;14.82;49.03
40838;BME280;29632;49.168;9.848;2023-02-18T06:35:06;97473.97;;;14.83;49.43
40838;BME280;29632;49.168;9.848;2023-02-18T06:37:32;97465.00;;;14.85;49.34
40838;BME280;29632;49.168;9.848;2023-02-18T06:39:58;97463.19;;;14.86;49.35
40838;BME280;29632;49.168;9.848;2023-02-18T06:42:23;97458.75;;;14.86;49.05
40838;BME280;29632;49.168;9.848;2023-02-18T06:44:49;97453.50;;;14.86;49.12
40838;BME280;29632;49.168;9.848;2023-02-18T06:47:15;97460.72;;;14.84;49.00
40838;BME280;29632;49.168;9.848;2023-02-18T06:49:40;97457.44;;;14.82;49.22
40838;BME280;29632;49.168;9.848;2023-02-18T06:52:06;97450.38;;;14.83;49.37
40838;BME280;29632;49.168;9.848;2023-02-18T06:54:34;97454.66;;;14.84;49.19
40838;BME280;29632;49.168;9.848;2023-02-18T06:56:59;97453.34;;;14.88;49.22
40838;BME280;29632;49.168;9.848;2023-02-18T06:59:25;97446.81;;;14.92;49.10
40838;BME280;29632;49.168;9.848;2023-02-18T07:01:51;97437.69;;;14.96;48.86
40838;BME280;29632;49.168;9.848;2023-02-18T07:04:16;97446.72;;;15.02;48.90
40838;BME280;29632;49.168;9.848;2023-02-18T07:06:42;97446.72;;;15.02;49.16
40838;BME280;29632;49.168;9.848;2023-02-18T07:09:08;97440.66;;;15.01;49.10
40838;BME280;29632;49.168;9.848;2023-02-18T07:11:33;97439.66;;;15.02;48.99
40838;BME280;29632;49.168;9.848;2023-02-18T07:13:59;97441.97;;;15.05;49.06
40838;BME280;29632;49.168;9.848;2023-02-18T07:16:25;97426.09;;;15.07;49.29
40838;BME280;29632;49.168;9.848;2023-02-18T07:18:50;97431.19;;;15.08;48.88
40838;BME280;29632;49.168;9.848;2023-02-18T07:21:16;97424.78;;;15.11;48.93
40838;BME280;29632;49.168;9.848;2023-02-18T07:23:41;97436.28;;;15.10;48.91
40838;BME280;29632;49.168;9.848;2023-02-18T07:26:10;97426.91;;;15.07;48.93
40838;BME280;29632;49.168;9.848;2023-02-18T07:28:36;97427.06;;;15.06;49.13
40838;BME280;29632;49.168;9.848;2023-02-18T07:31:02;97420.78;;;14.99;49.29
40838;BME280;29632;49.168;9.848;2023-02-18T07:33:28;97432.75;;;14.93;49.35
40838;BME280;29632;49.168;9.848;2023-02-18T07:35:55;97421.06;;;14.87;49.26
40838;BME280;29632;49.168;9.848;2023-02-18T07:38:21;97417.59;;;14.87;49.36
40838;BME280;29632;49.168;9.848;2023-02-18T07:40:47;97419.41;;;14.86;49.33
40838;BME280;29632;49.168;9.848;2023-02-18T07:43:13;97414.84;;;14.88;49.43
40838;BME280;29632;49.168;9.848;2023-02-18T07:45:39;97421.59;;;14.91;49.30
40838;BME280;29632;49.168;9.848;2023-02-18T07:48:04;97416.50;;;14.89;48.82
40838;BME280;29632;49.168;9.848;2023-02-18T07:50:30;97421.06;;;14.87;49.14
40838;BME280;29632;49.168;9.848;2023-02-18T07:53:03;97425.81;;;14.84;49.08
40838;BME280;29632;49.168;9.848;2023-02-18T07:55:29;97424.47;;;14.80;49.33
40838;BME280;29632;49.168;9.848;2023-02-18T07:58:15;97416.06;;;14.76;48.92
40838;BME280;29632;49.168;9.848;2023-02-18T08:00:41;97410.81;;;14.68;49.31
40838;BME280;29632;49.168;9.848;2023-02-18T08:03:06;97397.19;;;14.64;49.45
40838;BME280;29632;49.168;9.848;2023-02-18T08:05:32;97398.31;;;14.62;49.34
40838;BME280;29632;49.168;9.848;2023-02-18T08:07:58;97403.69;;;14.60;49.43
40838;BME280;29632;49.168;9.848;2023-02-18T08:10:23;97392.41;;;14.60;49.58
40838;BME280;29632;49.168;9.848;2023-02-18T08:12:49;97393.47;;;14.57;49.34
40838;BME280;29632;49.168;9.848;2023-02-18T08:15:15;97387.41;;;14.57;49.81
40838;BME280;29632;49.168;9.848;2023-02-18T08:17:40;97383.00;;;14.57;49.27
40838;BME280;29632;49.168;9.848;2023-02-18T08:20:06;97373.50;;;14.56;49.35
40838;BME280;29632;49.168;9.848;2023-02-18T08:22:32;97381.22;;;14.58;49.17
40838;BME280;29632;49.168;9.848;2023-02-18T08:24:58;97382.72;;;14.60;49.48
40838;BME280;29632;49.168;9.848;2023-02-18T08:27:24;97385.03;;;14.63;48.99
40838;BME280;29632;49.168;9.848;2023-02-18T08:29:50;97377.69;;;14.67;49.00
40838;BME280;29632;49.168;9.848;2023-02-18T08:32:15;97374.91;;;14.68;49.06
40838;BME280;29632;49.168;9.848;2023-02-18T08:34:41;97384.75;;;14.66;49.21
40838;BME280;29632;49.168;9.848;2023-02-18T08:37:06;97376.03;;;14.66;49.24
40838;BME280;29632;49.168;9.848;2023-02-18T08:39:36;97380.47;;;14.65;49.28
40838;BME280;29632;49.168;9.848;2023-02-18T08:42:03;97372.09;;;14.62;49.20
40838;BME280;29632;49.168;9.848;2023-02-18T08:44:28;97383.72;;;14.59;49.25
40838;BME280;29632;49.168;9.848;2023-02-18T08:46:54;97377.09;;;14.55;49.21
40838;BME280;29632;49.168;9.848;2023-02-18T08:49:20;97377.25;;;14.53;49.64
40838;BME280;29632;49.168;9.848;2023-02-18T08:51:46;97387.88;;;14.52;49.40
40838;BME280;29632;49.168;9.848;2023-02-18T08:54:12;97368.72;;;14.51;49.54
40838;BME280;29632;49.168;9.848;2023-02-18T08:56:38;97385.09;;;14.53;49.47
40838;BME280;29632;49.168;9.848;2023-02-18T08:59:04;97378.75;;;14.56;49.27
40838;BME280;29632;49.168;9.848;2023-02-18T09:01:30;97367.25;;;14.57;49.16
40838;BME280;29632;49.168;9.848;2023-02-18T09:03:56;97375.66;;;14.61;49.13
40838;BME280;29632;49.168;9.848;2023-02-18T09:06:22;97371.28;;;14.69;49.37
40838;BME280;29632;49.168;9.848;2023-02-18T09:08:48;97358.41;;;14.76;49.18
40838;BME280;29632;49.168;9.848;2023-02-18T09:11:13;97350.72;;;14.83;48.96
40838;BME280;29632;49.168;9.848;2023-02-18T09:13:39;97357.84;;;14.90;49.00
40838;BME280;29632;49.168;9.848;2023-02-18T09:16:06;97348.19;;;14.99;49.00
40838;BME280;29632;49.168;9.848;2023-02-18T09:18:33;97351.47;;;15.01;48.89
40838;BME280;29632;49.168;9.848;2023-02-18T09:21:03;97344.13;;;15.05;48.95
40838;BME280;29632;49.168;9.848;2023-02-18T09:23:30;97364.59;;;15.09;48.63
40838;BME280;29632;49.168;9.848;2023-02-18T09:25:56;97339.72;;;15.14;48.78
40838;BME280;29632;49.168;9.848;2023-02-18T09:28:22;97346.13;;;15.19;48.94
40838;BME280;29632;49.168;9.848;2023-02-18T09:30:47;97325.94;;;15.20;48.75
40838;BME280;29632;49.168;9.848;2023-02-18T09:33:13;97345.97;;;15.21;48.98
40838;BME280;29632;49.168;9.848;2023-02-18T09:35:43;97324.66;;;15.24;48.84
40838;BME280;29632;49.168;9.848;2023-02-18T09:38:10;97314.00;;;15.34;48.68
40838;BME280;29632;49.168;9.848;2023-02-18T09:40:38;97326.84;;;15.45;48.86
40838;BME280;29632;49.168;9.848;2023-02-18T09:43:05;97324.56;;;15.50;48.42
40838;BME280;29632;49.168;9.848;2023-02-18T09:45:31;97321.28;;;15.56;48.46
40838;BME280;29632;49.168;9.848;2023-02-18T09:47:57;97330.28;;;15.62;48.64
40838;BME280;29632;49.168;9.848;2023-02-18T09:50:30;97338.50;;;15.67;48.41
40838;BME280;29632;49.168;9.848;2023-02-18T09:53:01;97337.38;;;15.70;48.17
40838;BME280;29632;49.168;9.848;2023-02-18T09:55:34;97347.38;;;15.74;48.45
40838;BME280;29632;49.168;9.848;2023-02-18T09:58:10;97344.31;;;15.79;48.28
40838;BME280;29632;49.168;9.848;2023-02-18T10:00:40;97348.09;;;15.76;48.50
40838;BME280;29632;49.168;9.848;2023-02-18T10:03:17;97350.56;;;15.78;48.60
40838;BME280;29632;49.168;9.848;2023-02-18T10:08:34;97349.56;;;15.87;48.47
40838;BME280;29632;49.168;9.848;2023-02-18T10:11:01;97343.31;;;15.88;48.39
40838;BME280;29632;49.168;9.848;2023-02-18T10:13:32;97338.22;;;15.86;48.52
40838;BME280;29632;49.168;9.848;2023-02-18T10:15:58;97334.63;;;15.88;48.49
40838;BME280;29632;49.168;9.848;2023-02-18T10:18:32;97342.19;;;15.91;48.24
40838;BME280;29632;49.168;9.848;2023-02-18T10:21:07;97346.75;;;15.97;48.37
40838;BME280;29632;49.168;9.848;2023-02-18T10:23:39;97338.91;;;16.05;48.14
40838;BME280;29632;49.168;9.848;2023-02-18T10:26:09;97346.13;;;16.11;48.07
40838;BME280;29632;49.168;9.848;2023-02-18T10:28:37;97339.22;;;16.10;48.12
40838;BME280;29632;49.168;9.848;2023-02-18T10:31:08;97321.81;;;16.09;48.10
40838;BME280;29632;49.168;9.848;2023-02-18T10:33:41;97327.56;;;16.04;48.09
40838;BME280;29632;49.168;9.848;2023-02-18T10:47:41;97339.53;;;16.07;48.49
40838;BME280;29632;49.168;9.848;2023-02-18T10:52:50;97333.00;;;16.03;48.38
40838;BME280;29632;49.168;9.848;2023-02-18T10:55:16;97338.41;;;16.01;48.14
40838;BME280;29632;49.168;9.848;2023-02-18T10:57:53;97339.38;;;16.00;48.11
40838;BME280;29632;49.168;9.848;2023-02-18T11:00:21;97327.41;;;15.98;48.30
40838;BME280;29632;49.168;9.848;2023-02-18T11:05:35;97327.88;;;15.93;48.09
40838;BME280;29632;49.168;9.848;2023-02-18T11:08:03;97311.63;;;15.90;47.94
40838;BME280;29632;49.168;9.848;2023-02-18T11:10:34;97322.31;;;15.88;48.21
40838;BME280;29632;49.168;9.848;2023-02-18T11:13:02;97307.38;;;15.89;48.00
40838;BME280;29632;49.168;9.848;2023-02-18T11:15:28;97323.78;;;15.91;48.14
40838;BME280;29632;49.168;9.848;2023-02-18T11:17:57;97315.59;;;15.94;48.12
40838;BME280;29632;49.168;9.848;2023-02-18T11:20:32;97304.91;;;15.95;47.87
40838;BME280;29632;49.168;9.848;2023-02-18T11:23:11;97311.00;;;15.96;47.95
40838;BME280;29632;49.168;9.848;2023-02-18T11:25:39;97309.34;;;15.95;47.94
40838;BME280;29632;49.168;9.848;2023-02-18T11:30:53;97307.22;;;15.90;48.01
40838;BME280;29632;49.168;9.848;2023-02-18T11:33:36;97306.06;;;15.93;47.85
40838;BME280;29632;49.168;9.848;2023-02-18T11:36:11;97291.75;;;15.95;47.97
40838;BME280;29632;49.168;9.848;2023-02-18T11:41:11;97299.16;;;15.92;47.99
40838;BME280;29632;49.168;9.848;2023-02-18T11:43:41;97287.50;;;15.86;48.00
40838;BME280;29632;49.168;9.848;2023-02-18T11:48:37;97287.53;;;15.78;47.91
40838;BME280;29632;49.168;9.848;2023-02-18T11:51:02;97298.19;;;15.76;47.93
40838;BME280;29632;49.168;9.848;2023-02-18T11:53:34;97294.72;;;15.76;48.18
40838;BME280;29632;49.168;9.848;2023-02-18T11:56:03;97284.06;;;15.77;48.30
40838;BME280;29632;49.168;9.848;2023-02-18T11:58:36;97287.34;;;15.79;48.23
40838;BME280;29632;49.168;9.848;2023-02-18T12:01:02;97287.84;;;15.83;48.15
40838;BME280;29632;49.168;9.848;2023-02-18T12:03:41;97280.16;;;15.81;47.99
40838;BME280;29632;49.168;9.848;2023-02-18T12:06:23;97275.88;;;15.80;47.91
40838;BME280;29632;49.168;9.848;2023-02-18T12:08:55;97266.84;;;15.75;47.99
40838;BME280;29632;49.168;9.848;2023-02-18T12:11:52;97285.53;;;15.72;48.17
40838;BME280;29632;49.168;9.848;2023-02-18T12:14:21;97278.63;;;15.71;48.15
40838;BME280;29632;49.168;9.848;2023-02-18T12:22:24;97251.19;;;15.57;48.15
40838;BME280;29632;49.168;9.848;2023-02-18T12:25:09;97246.31;;;15.54;48.11
40838;BME280;29632;49.168;9.848;2023-02-18T12:29:01;97260.25;;;15.54;47.96
40838;BME280;29632;49.168;9.848;2023-02-18T12:31:31;97260.56;;;15.51;48.37
40838;BME280;29632;49.168;9.848;2023-02-18T12:42:59;97249.72;;;15.46;48.22
40838;BME280;29632;49.168;9.848;2023-02-18T12:45:52;97264.19;;;15.50;48.16
40838;BME280;29632;49.168;9.848;2023-02-18T12:53:37;97253.03;;;15.56;47.99
40838;BME280;29632;49.168;9.848;2023-02-18T13:04:34;97240.22;;;15.53;48.00
40838;BME280;29632;49.168;9.848;2023-02-18T13:13:00;97228.25;;;15.51;47.89
40838;BME280;29632;49.168;9.848;2023-02-18T13:21:35;97232.03;;;15.56;47.88
40838;BME280;29632;49.168;9.848;2023-02-18T13:24:05;97223.97;;;15.58;48.07
40838;BME280;29632;49.168;9.848;2023-02-18T13:26:32;97219.91;;;15.55;48.04
40838;BME280;29632;49.168;9.848;2023-02-18T13:39:55;97221.53;;;15.64;47.97
40838;BME280;29632;49.168;9.848;2023-02-18T13:47:42;97206.91;;;15.62;47.89
40838;BME280;29632;49.168;9.848;2023-02-18T13:52:46;97202.66;;;15.69;47.82
40838;BME280;29632;49.168;9.848;2023-02-18T13:55:20;97205.28;;;15.69;48.06
40838;BME280;29632;49.168;9.848;2023-02-18T13:57:47;97189.53;;;15.69;47.97
40838;BME280;29632;49.168;9.848;2023-02-18T14:00:22;97205.44;;;15.67;47.85
40838;BME280;29632;49.168;9.848;2023-02-18T14:03:04;97189.84;;;15.66;48.00
40838;BME280;29632;49.168;9.848;2023-02-18T14:05:43;97185.25;;;15.60;48.01
40838;BME280;29632;49.168;9.848;2023-02-18T14:08:29;97197.25;;;15.54;48.06
40838;BME280;29632;49.168;9.848;2023-02-18T14:13:43;97192.00;;;15.46;48.00
40838;BME280;29632;49.168;9.848;2023-02-18T14:16:12;97193.81;;;15.45;48.13
40838;BME280;29632;49.168;9.848;2023-02-18T14:23:43;97191.00;;;15.39;48.17
40838;BME280;29632;49.168;9.848;2023-02-18T14:42:33;97189.53;;;15.28;48.13
40838;BME280;29632;49.168;9.848;2023-02-18T14:45:28;97177.38;;;15.27;48.36
40838;BME280;29632;49.168;9.848;2023-02-18T14:50:46;97179.03;;;15.28;48.15
40838;BME280;29632;49.168;9.848;2023-02-18T14:53:20;97174.94;;;15.34;48.18
40838;BME280;29632;49.168;9.848;2023-02-18T14:55:53;97172.97;;;15.36;48.02
40838;BME280;29632;49.168;9.848;2023-02-18T14:58:29;97173.63;;;15.38;47.80
40838;BME280;29632;49.168;9.848;2023-02-18T15:00:57;97185.75;;;15.39;47.98
40838;BME280;29632;49.168;9.848;2023-02-18T15:03:25;97187.41;;;15.40;48.16
40838;BME280;29632;49.168;9.848;2023-02-18T15:05:51;97175.75;;;15.42;47.79
40838;BME280;29632;49.168;9.848;2023-02-18T15:08:24;97187.09;;;15.43;47.98
40838;BME280;29632;49.168;9.848;2023-02-18T15:11:01;97180.84;;;15.44;47.96
40838;BME280;29632;49.168;9.848;2023-02-18T15:13:36;97188.72;;;15.44;48.13
40838;BME280;29632;49.168;9.848;2023-02-18T15:16:13;97184.75;;;15.48;47.94
40838;BME280;29632;49.168;9.848;2023-02-18T15:18:54;97183.47;;;15.52;47.86
40838;BME280;29632;49.168;9.848;2023-02-18T15:21:25;97183.16;;;15.55;48.14
40838;BME280;29632;49.168;9.848;2023-02-18T15:23:52;97193.28;;;15.58;47.77
40838;BME280;29632;49.168;9.848;2023-02-18T15:26:18;97177.91;;;15.55;48.13
40838;BME280;29632;49.168;9.848;2023-02-18T15:29:00;97189.38;;;15.54;47.95
40838;BME280;29632;49.168;9.848;2023-02-18T15:31:28;97188.56;;;15.54;47.73
40838;BME280;29632;49.168;9.848;2023-02-18T15:33:54;97186.09;;;15.52;47.86
40838;BME280;29632;49.168;9.848;2023-02-18T15:36:19;97183.31;;;15.54;47.82
40838;BME280;29632;49.168;9.848;2023-02-18T15:38:45;97188.19;;;15.57;47.81